Time;durP1;ratioP1;P1;durP2;ratioP2;P2;SDS_P1;SDS_P2;PMS_P1;PMS_P2;Temp;Humidity;BMP_temperature;BMP_pressure;BME280_temperature;BME280_humidity;BME280_pressure;Samples;Min_cycle;Max_cycle;Signal;HPM_P1;HPM_P2
2023/08/04 00:02:19;;;;;;;4.43;2.42;;;;;;;23.16;63.72;98950.50;4467257;32;33778;-66
2023/08/04 00:04:47;;;;;;;3.37;2.25;;;;;;;23.41;63.21;98934.25;4463829;32;34419;-67
2023/08/04 00:07:14;;;;;;;4.62;2.22;;;;;;;23.48;63.07;98932.31;4461894;32;33445;-67
2023/08/04 00:09:42;;;;;;;4.87;1.92;;;;;;;23.56;62.85;98947.59;4464026;32;33710;-68
2023/08/04 00:12:09;;;;;;;5.03;1.92;;;;;;;23.33;63.07;99010.94;4470068;32;34609;-68
2023/08/04 00:14:37;;;;;;;5.35;2.10;;;;;;;22.55;65.68;99059.91;4470795;32;34535;-67
2023/08/04 00:17:05;;;;;;;4.45;1.77;;;;;;;21.98;65.88;99081.13;4459550;32;34304;-67
2023/08/04 00:19:32;;;;;;;4.37;1.85;;;;;;;21.01;68.80;99073.06;4463787;32;34292;-67
2023/08/04 00:22:00;;;;;;;6.80;1.67;;;;;;;21.47;66.88;99081.53;4459202;32;34021;-67
2023/08/04 00:24:27;;;;;;;4.40;1.67;;;;;;;20.81;69.34;99105.56;4458193;32;34532;-68
2023/08/04 00:26:55;;;;;;;2.25;1.10;;;;;;;21.13;67.63;99132.19;4475768;32;35029;-67
2023/08/04 00:29:23;;;;;;;4.82;1.45;;;;;;;21.23;66.83;99088.28;4471384;32;33818;-68
2023/08/04 00:31:50;;;;;;;12.15;2.08;;;;;;;19.97;72.11;99038.22;4465162;32;33829;-67
2023/08/04 00:34:18;;;;;;;3.67;1.17;;;;;;;21.06;68.41;99074.16;4468131;32;33064;-67
2023/08/04 00:36:47;;;;;;;3.45;1.73;;;;;;;20.94;68.95;99067.56;4469099;32;33669;-68
2023/08/04 00:39:15;;;;;;;6.12;2.10;;;;;;;19.84;73.17;99028.06;4462877;32;33848;-66
2023/08/04 00:41:43;;;;;;;1.27;1.05;;;;;;;20.56;71.11;99034.44;4471431;32;34529;-67
2023/08/04 00:44:11;;;;;;;3.00;1.20;;;;;;;21.38;67.16;99039.22;4468516;32;33114;-67
2023/08/04 00:46:38;;;;;;;3.20;1.45;;;;;;;21.22;68.31;99043.06;4458233;32;33710;-68
2023/08/04 00:49:07;;;;;;;5.03;1.98;;;;;;;21.68;66.72;99034.31;4447043;32;34051;-67
2023/08/04 00:51:35;;;;;;;4.40;1.98;;;;;;;21.75;66.31;99010.66;4451364;32;33579;-67
2023/08/04 00:54:03;;;;;;;3.95;1.37;;;;;;;21.46;66.99;99002.81;4468687;32;33290;-68
2023/08/04 00:56:31;;;;;;;4.25;1.62;;;;;;;21.73;66.53;99020.91;4466151;32;35292;-68
2023/08/04 00:58:59;;;;;;;6.05;1.87;;;;;;;21.81;66.35;99017.19;4458451;32;34033;-68
2023/08/04 01:01:26;;;;;;;6.05;1.77;;;;;;;22.22;64.74;99000.75;4466712;32;34469;-67
2023/08/04 01:03:56;;;;;;;1.55;1.10;;;;;;;22.32;64.30;98986.69;4463802;32;34383;-68
2023/08/04 01:06:26;;;;;;;3.12;1.20;;;;;;;22.30;64.33;98980.59;4459474;32;33595;-68
2023/08/04 01:09:15;;;;;;;2.20;1.15;;;;;;;22.08;65.13;98982.66;4452486;32;33946;-68
2023/08/04 01:11:48;;;;;;;8.38;1.85;;;;;;;21.59;67.18;99035.53;4459501;32;33564;-68
2023/08/04 01:14:16;;;;;;;7.60;2.12;;;;;;;21.77;66.58;99024.09;4474462;32;33197;-68
2023/08/04 01:16:44;;;;;;;3.97;1.70;;;;;;;22.02;65.66;98989.78;4455444;32;33798;-68
2023/08/04 01:19:13;;;;;;;4.62;1.55;;;;;;;21.98;66.87;98983.06;4471927;32;33565;-68
2023/08/04 01:21:41;;;;;;;5.47;1.83;;;;;;;22.28;66.22;98982.72;4465324;32;33902;-68
2023/08/04 01:24:09;;;;;;;3.22;1.40;;;;;;;22.28;65.85;99005.38;4476383;32;33268;-72
2023/08/04 01:26:39;;;;;;;6.28;2.22;;;;;;;22.47;64.89;99027.38;4471399;32;34056;-70
2023/08/04 01:29:07;;;;;;;5.95;1.77;;;;;;;22.49;64.61;99017.94;4458307;32;33634;-68
2023/08/04 01:31:37;;;;;;;6.12;2.10;;;;;;;22.50;64.74;99011.47;4473253;32;34637;-67
2023/08/04 01:34:04;;;;;;;3.10;1.35;;;;;;;22.55;64.67;99025.28;4477935;32;33274;-68
2023/08/04 01:36:32;;;;;;;4.53;2.15;;;;;;;22.51;64.99;99050.47;4465855;32;33639;-68
2023/08/04 01:39:00;;;;;;;5.62;2.40;;;;;;;22.64;64.74;99033.28;4477729;32;33331;-69
2023/08/04 01:41:27;;;;;;;2.33;1.27;;;;;;;22.71;64.98;99023.19;4463950;32;34387;-68
2023/08/04 01:43:55;;;;;;;4.87;1.50;;;;;;;22.81;65.22;99011.84;4462537;32;33119;-68
2023/08/04 01:46:24;;;;;;;4.03;1.65;;;;;;;22.83;65.28;99010.59;4469094;32;33558;-68
2023/08/04 01:48:52;;;;;;;3.92;1.50;;;;;;;22.93;64.67;99000.13;4458057;32;33964;-68
2023/08/04 01:51:19;;;;;;;5.20;1.80;;;;;;;22.93;64.32;99010.16;4466295;32;33902;-68
2023/08/04 01:53:47;;;;;;;2.53;1.23;;;;;;;23.14;63.55;99012.66;4469133;32;33454;-68
2023/08/04 01:56:16;;;;;;;7.57;1.83;;;;;;;23.28;63.10;99024.41;4456703;32;34573;-68
2023/08/04 01:58:44;;;;;;;2.85;1.50;;;;;;;23.29;62.95;99038.88;4470003;32;33677;-68
2023/08/04 02:01:12;;;;;;;7.03;1.23;;;;;;;23.32;62.75;99047.47;4464940;32;34472;-68
2023/08/04 02:03:40;;;;;;;2.47;1.45;;;;;;;23.34;62.69;99041.78;4481359;32;33263;-69
2023/08/04 02:06:08;;;;;;;3.90;1.80;;;;;;;23.33;62.56;99042.84;4467536;32;33759;-68
2023/08/04 02:08:35;;;;;;;8.68;2.22;;;;;;;23.35;62.77;99017.03;4464317;32;34991;-68
2023/08/04 02:11:03;;;;;;;3.22;1.75;;;;;;;23.19;63.66;98985.56;4461736;32;34900;-69
2023/08/04 02:13:30;;;;;;;5.10;2.58;;;;;;;23.36;63.34;98990.56;4456741;32;34523;-68
2023/08/04 02:15:58;;;;;;;5.12;1.58;;;;;;;23.45;62.97;98998.28;4481143;32;33836;-69
2023/08/04 02:18:26;;;;;;;3.37;1.67;;;;;;;23.42;63.01;98993.25;4456827;32;33650;-69
2023/08/04 02:20:53;;;;;;;5.00;1.75;;;;;;;23.51;62.95;98990.28;4472784;32;33789;-68
2023/08/04 02:23:21;;;;;;;4.20;3.03;;;;;;;23.42;63.07;98990.53;4468906;32;33182;-68
2023/08/04 02:25:48;;;;;;;3.00;1.40;;;;;;;23.41;62.86;98991.59;4480395;32;33638;-68
2023/08/04 02:28:16;;;;;;;3.72;1.70;;;;;;;23.30;62.20;98996.88;4465152;32;34136;-68
2023/08/04 02:30:43;;;;;;;2.58;1.45;;;;;;;23.26;61.90;99001.94;4477010;32;33745;-68
2023/08/04 02:33:11;;;;;;;2.67;1.30;;;;;;;23.15;61.77;99010.78;4469348;32;33373;-68
2023/08/04 02:35:39;;;;;;;4.65;1.42;;;;;;;23.24;61.27;99004.03;4457505;32;32438;-68
2023/08/04 02:38:06;;;;;;;3.40;1.55;;;;;;;23.16;61.50;98998.81;4458222;32;33726;-69
2023/08/04 02:40:36;;;;;;;3.67;1.23;;;;;;;23.00;62.63;98990.03;4456074;32;33807;-69
2023/08/04 02:43:04;;;;;;;4.87;1.37;;;;;;;22.91;62.67;98974.91;4466321;32;35023;-67
2023/08/04 02:45:32;;;;;;;4.20;1.20;;;;;;;23.21;61.68;98968.97;4453467;32;33627;-68
2023/08/04 02:47:59;;;;;;;2.80;1.48;;;;;;;23.13;61.94;98971.94;4457418;32;33836;-68
2023/08/04 02:50:28;;;;;;;2.30;1.25;;;;;;;23.17;61.28;98998.59;4462474;32;34505;-69
2023/08/04 02:52:56;;;;;;;2.62;1.27;;;;;;;23.09;61.28;99023.38;4478932;32;33377;-68
2023/08/04 02:55:24;;;;;;;2.80;0.98;;;;;;;22.63;63.03;99048.81;4464269;32;34925;-67
2023/08/04 02:57:51;;;;;;;4.12;1.45;;;;;;;22.29;64.23;99080.63;4457195;32;34991;-68
2023/08/04 03:00:19;;;;;;;5.85;1.58;;;;;;;21.99;65.14;99069.22;4462574;32;34717;-69
2023/08/04 03:02:46;;;;;;;7.12;1.48;;;;;;;21.92;65.22;99084.69;4462539;32;33626;-69
2023/08/04 03:05:14;;;;;;;2.03;0.98;;;;;;;22.16;64.35;99071.59;4476920;32;33765;-69
2023/08/04 03:07:41;;;;;;;2.58;1.02;;;;;;;21.69;66.21;99074.09;4483907;32;34085;-69
2023/08/04 03:10:09;;;;;;;1.95;1.15;;;;;;;22.19;64.75;99057.56;4464876;32;33632;-69
2023/08/04 03:12:37;;;;;;;2.30;1.08;;;;;;;21.70;66.82;99036.81;4468924;32;33139;-69
2023/08/04 03:15:05;;;;;;;2.20;1.02;;;;;;;22.15;65.59;99028.97;4465461;32;34681;-69
2023/08/04 03:17:33;;;;;;;1.58;0.50;;;;;;;22.56;64.10;99021.50;4470407;32;34032;-69
2023/08/04 03:20:00;;;;;;;2.30;0.95;;;;;;;22.58;63.38;99023.22;4475005;32;33889;-69
2023/08/04 03:22:28;;;;;;;2.35;1.02;;;;;;;22.60;62.91;99026.53;4472585;32;33198;-69
2023/08/04 03:24:55;;;;;;;1.50;0.80;;;;;;;22.65;62.66;99029.50;4471635;32;33589;-69
2023/08/04 03:27:23;;;;;;;0.60;0.45;;;;;;;22.64;62.58;99023.19;4462536;32;33871;-69
2023/08/04 03:29:51;;;;;;;1.70;0.95;;;;;;;22.60;63.09;99015.63;4459843;32;34297;-69
2023/08/04 03:32:19;;;;;;;2.55;0.65;;;;;;;22.73;62.55;99015.66;4476998;32;33445;-69
2023/08/04 03:34:46;;;;;;;1.15;0.65;;;;;;;22.78;62.54;99018.56;4471322;32;33712;-69
2023/08/04 03:37:14;;;;;;;4.93;0.82;;;;;;;22.72;63.09;99024.87;4481480;32;33757;-68
2023/08/04 03:39:41;;;;;;;1.45;0.93;;;;;;;22.74;62.85;99033.69;4464083;32;33549;-68
2023/08/04 03:42:09;;;;;;;2.92;1.12;;;;;;;22.72;63.09;99041.22;4462973;32;33195;-68
2023/08/04 03:44:36;;;;;;;1.33;0.80;;;;;;;22.02;66.08;99041.56;4465631;32;34729;-67
2023/08/04 03:47:05;;;;;;;2.12;0.93;;;;;;;22.26;65.35;99048.34;4454569;32;33936;-68
2023/08/04 03:49:32;;;;;;;1.55;0.75;;;;;;;22.04;65.84;99074.03;4460934;32;34888;-68
2023/08/04 03:52:00;;;;;;;2.45;1.23;;;;;;;22.26;65.09;99077.47;4477725;32;33978;-67
2023/08/04 03:54:27;;;;;;;1.30;0.85;;;;;;;21.96;66.21;99088.69;4463478;32;34146;-65
2023/08/04 03:56:55;;;;;;;2.37;1.17;;;;;;;22.05;65.44;99100.22;4465388;32;33909;-69
2023/08/04 03:59:22;;;;;;;2.78;1.20;;;;;;;21.93;66.18;99119.06;4460615;32;33727;-65
2023/08/04 04:01:50;;;;;;;1.52;0.95;;;;;;;21.49;67.87;99106.69;4478272;32;33087;-66
2023/08/04 04:04:18;;;;;;;2.30;1.15;;;;;;;21.36;68.92;99085.69;4477129;32;35511;-67
2023/08/04 04:06:46;;;;;;;1.65;1.20;;;;;;;21.46;68.44;99106.25;4471969;32;35035;-68
2023/08/04 04:09:14;;;;;;;3.25;1.67;;;;;;;21.51;68.13;99111.91;4477557;32;33849;-65
2023/08/04 04:11:42;;;;;;;6.53;1.95;;;;;;;21.36;68.71;99115.63;4462952;32;33020;-65
2023/08/04 04:14:10;;;;;;;3.50;1.95;;;;;;;21.66;66.96;99147.22;4466037;32;33791;-65
2023/08/04 04:16:38;;;;;;;2.45;1.37;;;;;;;21.80;66.47;99159.88;4465264;32;34285;-65
2023/08/04 04:19:06;;;;;;;3.62;1.85;;;;;;;21.45;67.85;99150.88;4457767;32;33642;-65
2023/08/04 04:21:34;;;;;;;4.47;2.00;;;;;;;21.19;69.35;99146.87;4468033;32;33122;-63
2023/08/04 04:24:01;;;;;;;3.25;1.65;;;;;;;20.16;73.30;99100.09;4463564;32;33978;-64
2023/08/04 04:26:29;;;;;;;2.10;1.37;;;;;;;20.79;71.75;99089.41;4467700;32;33956;-64
2023/08/04 04:28:56;;;;;;;2.15;1.30;;;;;;;21.25;69.33;99075.34;4477195;32;33623;-65
2023/08/04 04:31:24;;;;;;;3.37;1.60;;;;;;;21.89;66.66;99068.72;4478246;32;33347;-64
2023/08/04 04:33:52;;;;;;;2.67;1.75;;;;;;;22.07;66.14;99062.72;4476971;32;33914;-64
2023/08/04 04:36:19;;;;;;;1.60;1.00;;;;;;;22.29;65.61;99058.00;4466368;32;33618;-64
2023/08/04 04:38:47;;;;;;;2.70;1.17;;;;;;;22.45;65.28;99045.84;4464399;32;34009;-64
2023/08/04 04:41:15;;;;;;;1.55;1.00;;;;;;;22.58;64.67;99064.94;4470415;32;33601;-65
2023/08/04 04:43:42;;;;;;;5.62;1.37;;;;;;;22.66;64.46;99058.44;4469723;32;33404;-65
2023/08/04 04:46:10;;;;;;;1.70;1.12;;;;;;;22.29;65.96;99050.66;4463855;32;35479;-65
2023/08/04 04:48:38;;;;;;;2.83;1.10;;;;;;;21.85;67.54;99051.13;4463124;32;34974;-65
2023/08/04 04:51:05;;;;;;;4.07;1.37;;;;;;;22.19;66.56;99036.59;4465669;32;33022;-65
2023/08/04 04:53:33;;;;;;;6.68;1.37;;;;;;;;;;4476165;32;33588;-65
2023/08/04 04:56:00;;;;;;;3.03;1.37;;;;;;;22.75;65.38;99028.00;4468839;32;34087;-65
2023/08/04 04:58:28;;;;;;;2.12;1.15;;;;;;;22.88;65.07;99026.31;4467574;32;33601;-65
2023/08/04 05:01:02;;;;;;;2.75;1.35;;;;;;;23.05;64.13;99029.47;4464220;32;34345;-65
2023/08/04 05:03:30;;;;;;;;;;;;;;;23.41;63.37;99024.34;4464965;32;33543;-65
2023/08/04 05:05:58;;;;;;;4.05;1.37;;;;;;;22.94;65.11;99025.50;4471464;32;34113;-64
2023/08/04 05:08:25;;;;;;;3.10;1.50;;;;;;;22.89;64.67;99019.81;4457835;32;32761;-65
2023/08/04 05:10:54;;;;;;;1.48;0.70;;;;;;;22.71;65.33;99021.31;4467712;32;35651;-66
2023/08/04 05:13:21;;;;;;;3.08;1.65;;;;;;;22.63;65.41;99015.22;4472195;32;33602;-66
2023/08/04 05:15:49;;;;;;;2.22;1.17;;;;;;;22.99;64.15;99017.53;4474931;32;33946;-66
2023/08/04 05:18:19;;;;;;;2.55;1.10;;;;;;;23.06;63.83;99020.25;4466397;32;34815;-65
2023/08/04 05:20:47;;;;;;;1.67;1.10;;;;;;;23.35;62.91;99022.47;4463281;32;34212;-66
2023/08/04 05:23:15;;;;;;;3.00;1.37;;;;;;;23.36;63.08;99015.97;4467113;32;34272;-65
2023/08/04 05:25:43;;;;;;;3.28;1.50;;;;;;;23.39;63.16;99020.16;4473512;32;33450;-66
2023/08/04 05:28:32;;;;;;;4.18;2.03;;;;;;;23.46;63.14;99010.03;4464809;32;34893;-66
2023/08/04 05:31:02;;;;;;;2.87;1.65;;;;;;;23.10;64.37;99011.41;4457442;32;33189;-66
2023/08/04 05:33:31;;;;;;;4.35;1.83;;;;;;;23.11;64.26;99012.25;4457210;32;33540;-66
2023/08/04 05:35:59;;;;;;;6.10;1.42;;;;;;;23.35;63.75;99008.84;4457544;32;34845;-66
2023/08/04 05:38:28;;;;;;;2.87;1.42;;;;;;;23.57;63.00;99011.28;4452743;32;33697;-66
2023/08/04 05:40:59;;;;;;;1.77;1.17;;;;;;;23.63;62.78;99004.94;4465689;32;33156;-65
2023/08/04 05:43:28;;;;;;;2.05;1.20;;;;;;;23.73;62.50;98999.88;4466765;32;33593;-65
2023/08/04 05:46:00;;;;;;;3.30;1.27;;;;;;;23.76;62.98;98994.00;4462941;32;33765;-65
2023/08/04 05:48:29;;;;;;;4.45;1.62;;;;;;;23.94;63.16;98996.81;4466259;32;33901;-65
2023/08/04 05:50:57;;;;;;;4.07;1.75;;;;;;;24.05;63.57;99002.66;4467328;32;33319;-65
2023/08/04 05:53:25;;;;;;;3.92;2.30;;;;;;;24.06;63.60;99007.06;4473647;32;33865;-65
2023/08/04 05:55:53;;;;;;;2.97;1.62;;;;;;;24.04;64.07;99001.78;4473176;32;34050;-65
2023/08/04 05:58:21;;;;;;;2.15;1.15;;;;;;;24.21;63.44;99004.03;4467644;32;34565;-64
2023/08/04 06:00:48;;;;;;;6.95;2.37;;;;;;;24.20;63.92;99002.31;4459557;32;33129;-65
2023/08/04 06:03:16;;;;;;;5.22;1.73;;;;;;;24.37;63.43;98992.53;4473275;32;33733;-65
2023/08/04 06:05:44;;;;;;;1.73;1.17;;;;;;;24.24;64.35;98990.75;4472862;32;34225;-66
2023/08/04 06:08:11;;;;;;;3.50;1.90;;;;;;;24.24;63.93;98989.88;4471383;32;33974;-65
2023/08/04 06:10:39;;;;;;;2.65;1.33;;;;;;;24.54;63.25;98993.69;4465558;32;33089;-65
2023/08/04 06:13:07;;;;;;;3.30;1.75;;;;;;;24.58;63.15;98996.81;4466810;32;34949;-65
2023/08/04 06:15:34;;;;;;;2.83;1.52;;;;;;;24.89;61.83;99000.53;4465157;32;34278;-64
2023/08/04 06:18:02;;;;;;;3.75;1.98;;;;;;;24.96;61.49;99004.88;4466200;32;35169;-65
2023/08/04 06:20:30;;;;;;;5.45;2.22;;;;;;;24.89;62.33;99006.84;4467156;32;32854;-65
2023/08/04 06:22:57;;;;;;;2.60;1.45;;;;;;;25.15;61.24;99008.50;4465733;32;33835;-65
2023/08/04 06:25:25;;;;;;;3.15;1.58;;;;;;;25.23;60.59;99002.75;4465779;32;34984;-65
2023/08/04 06:27:53;;;;;;;3.17;1.37;;;;;;;25.26;61.25;99015.94;4467454;32;33513;-61
2023/08/04 06:30:21;;;;;;;4.15;1.73;;;;;;;25.14;61.34;99011.47;4474446;32;34264;-64
2023/08/04 06:32:49;;;;;;;2.53;1.62;;;;;;;25.32;61.02;99015.03;4473312;32;34924;-63
2023/08/04 06:35:17;;;;;;;7.03;1.45;;;;;;;25.53;59.29;99010.19;4467415;32;33792;-64
2023/08/04 06:37:45;;;;;;;3.37;1.65;;;;;;;25.59;59.42;99009.25;4463724;32;33820;-64
2023/08/04 06:40:12;;;;;;;2.40;1.33;;;;;;;25.26;60.81;99015.13;4473665;32;33647;-64
2023/08/04 06:42:40;;;;;;;3.67;1.58;;;;;;;25.50;59.53;99013.38;4460611;32;33854;-64
2023/08/04 06:45:08;;;;;;;4.32;1.60;;;;;;;25.61;58.91;99018.06;4462059;32;35006;-65
2023/08/04 06:47:35;;;;;;;4.03;1.60;;;;;;;25.66;58.29;99034.66;4480047;32;34164;-64
2023/08/04 06:50:03;;;;;;;3.45;1.55;;;;;;;25.49;57.87;99044.56;4473676;32;33558;-64
2023/08/04 06:52:31;;;;;;;2.97;1.83;;;;;;;25.68;58.16;99039.91;4465984;32;34482;-65
2023/08/04 06:54:59;;;;;;;2.30;1.33;;;;;;;25.74;58.27;99045.31;4464132;32;34915;-64
2023/08/04 06:57:28;;;;;;;7.57;1.95;;;;;;;25.85;57.68;99051.97;4462948;32;34642;-65
2023/08/04 06:59:55;;;;;;;4.15;1.52;;;;;;;25.87;57.57;99043.50;4465116;32;33104;-65
2023/08/04 07:02:23;;;;;;;5.93;1.92;;;;;;;25.78;58.67;99051.19;4465868;32;33928;-65
2023/08/04 07:04:51;;;;;;;3.40;1.65;;;;;;;25.65;59.57;99048.59;4474175;32;35275;-65
2023/08/04 07:07:18;;;;;;;3.03;1.75;;;;;;;25.65;58.34;99062.28;4474207;32;35945;-65
2023/08/04 07:09:46;;;;;;;3.00;1.40;;;;;;;25.88;57.55;99062.47;4456995;32;33308;-64
2023/08/04 07:12:14;;;;;;;4.85;1.92;;;;;;;25.92;57.66;99060.94;4463982;32;33867;-64
2023/08/04 07:14:41;;;;;;;4.87;1.75;;;;;;;25.82;58.40;99062.56;4477637;32;34355;-65
2023/08/04 07:17:09;;;;;;;8.00;2.03;;;;;;;25.54;58.77;99069.38;4467558;32;34390;-67
2023/08/04 07:19:37;;;;;;;4.75;1.25;;;;;;;25.54;58.19;99072.94;4466978;32;33213;-64
2023/08/04 07:22:04;;;;;;;3.30;1.55;;;;;;;25.50;57.92;99071.75;4464215;32;33380;-67
2023/08/04 07:24:32;;;;;;;3.30;1.55;;;;;;;25.35;58.17;99067.69;4466485;32;34079;-67
2023/08/04 07:27:00;;;;;;;3.35;1.48;;;;;;;24.99;58.90;99067.38;4467853;32;33669;-67
2023/08/04 07:29:33;;;;;;;2.35;1.10;;;;;;;25.10;58.67;99061.19;4474275;32;33474;-68
2023/08/04 07:32:01;;;;;;;4.35;1.80;;;;;;;25.39;58.31;99064.25;4465522;32;33665;-66
2023/08/04 07:34:28;;;;;;;3.03;1.55;;;;;;;25.29;57.96;99081.22;4469213;32;33846;-65
2023/08/04 07:36:56;;;;;;;4.82;2.00;;;;;;;25.33;58.24;99084.38;4481577;32;33666;-65
2023/08/04 07:39:24;;;;;;;3.95;1.50;;;;;;;25.16;58.95;99086.84;4464649;32;33800;-65
2023/08/04 07:41:51;;;;;;;3.87;1.48;;;;;;;25.39;58.82;99093.56;4464549;32;34649;-67
2023/08/04 07:44:19;;;;;;;3.67;1.75;;;;;;;25.07;59.96;99099.97;4462161;32;33843;-67
2023/08/04 07:46:47;;;;;;;3.20;1.55;;;;;;;25.23;59.74;99089.50;4469391;32;33611;-70
2023/08/04 07:49:14;;;;;;;9.27;1.58;;;;;;;24.99;61.20;99089.28;4462745;32;32930;-68
2023/08/04 07:51:44;;;;;;;3.10;1.55;;;;;;;25.46;59.93;99094.34;4473104;32;104010;-68
2023/08/04 07:54:12;;;;;;;3.30;1.75;;;;;;;25.57;59.37;99085.38;4448281;32;34894;-65
2023/08/04 07:56:39;;;;;;;6.78;1.92;;;;;;;25.13;59.11;99090.03;4441708;32;33657;-65
2023/08/04 07:59:07;;;;;;;2.70;1.45;;;;;;;24.98;61.22;99071.19;4448346;32;32095;-65
2023/08/04 08:01:35;;;;;;;3.80;1.80;;;;;;;25.55;58.15;99084.75;4442745;32;33487;-65
2023/08/04 08:04:03;;;;;;;7.28;2.05;;;;;;;24.34;58.09;99073.13;4448928;32;35167;-65
2023/08/04 08:06:31;;;;;;;3.85;1.35;;;;;;;24.69;57.51;99075.44;4443593;32;34005;-67
2023/08/04 08:08:59;;;;;;;3.45;1.42;;;;;;;25.16;57.13;99073.16;4441453;32;34654;-69
2023/08/04 08:11:27;;;;;;;2.92;1.35;;;;;;;24.77;56.73;99072.41;4449336;32;33549;-68
2023/08/04 08:13:54;;;;;;;3.37;1.35;;;;;;;24.48;58.28;99073.06;4447019;32;33911;-73
2023/08/04 08:16:22;;;;;;;4.00;1.42;;;;;;;25.25;56.30;99076.44;4447380;32;33763;-69
2023/08/04 08:18:50;;;;;;;2.55;1.27;;;;;;;24.98;57.77;99079.41;4441008;32;33062;-69
2023/08/04 08:21:17;;;;;;;3.12;1.23;;;;;;;25.21;57.04;99076.06;4448487;32;34726;-66
2023/08/04 08:23:45;;;;;;;1.67;1.15;;;;;;;25.82;54.06;99071.63;4447845;32;33691;-67
2023/08/04 08:26:13;;;;;;;3.40;1.40;;;;;;;25.36;56.26;99061.16;4465617;32;34668;-69
2023/08/04 08:28:41;;;;;;;2.78;1.35;;;;;;;25.58;56.70;99061.53;4466695;32;34062;-69
2023/08/04 08:31:08;;;;;;;1.95;1.27;;;;;;;25.63;57.90;99054.31;4456680;32;34643;-69
2023/08/04 08:33:36;;;;;;;4.65;1.55;;;;;;;25.86;55.16;99044.56;4461093;32;34071;-70
2023/08/04 08:36:05;;;;;;;4.82;2.00;;;;;;;26.17;54.86;99047.09;4464789;32;35610;-67
2023/08/04 08:38:33;;;;;;;3.92;2.08;;;;;;;25.61;55.09;99055.59;4469862;32;33876;-67
2023/08/04 08:41:02;;;;;;;8.18;2.00;;;;;;;26.10;54.47;99060.06;4467260;32;34918;-67
2023/08/04 08:43:30;;;;;;;2.65;1.52;;;;;;;26.16;54.53;99058.28;4468143;32;33877;-67
2023/08/04 08:45:57;;;;;;;3.35;1.90;;;;;;;25.87;55.38;99057.22;4442687;32;35272;-66
2023/08/04 08:48:26;;;;;;;3.05;1.70;;;;;;;25.94;54.37;99069.78;4427822;32;34399;-65
2023/08/04 08:50:59;;;;;;;3.10;1.70;;;;;;;25.99;54.60;99083.62;4415743;32;34068;-69
2023/08/04 08:53:30;;;;;;;5.67;1.50;;;;;;;25.90;56.43;99092.38;4427875;32;33638;-69
2023/08/04 08:56:00;;;;;;;6.28;1.42;;;;;;;26.54;53.81;99084.56;4426810;32;33658;-67
2023/08/04 08:58:29;;;;;;;3.97;1.40;;;;;;;26.70;52.94;99081.16;4415343;32;32158;-66
2023/08/04 09:00:57;;;;;;;2.70;1.42;;;;;;;26.42;54.66;99085.34;4414575;32;33690;-67
2023/08/04 09:03:25;;;;;;;4.30;1.85;;;;;;;26.83;52.92;99082.84;4386445;32;34829;-65
2023/08/04 09:05:53;;;;;;;4.00;1.67;;;;;;;26.48;52.82;99078.97;4390061;32;34549;-67
2023/08/04 09:08:20;;;;;;;2.67;1.55;;;;;;;26.53;54.56;99077.41;4384711;32;33153;-67
2023/08/04 09:10:48;;;;;;;2.62;1.37;;;;;;;26.41;53.92;99083.66;4368707;32;33723;-67
2023/08/04 09:13:16;;;;;;;3.03;1.80;;;;;;;26.26;54.47;99080.53;4371018;32;33996;-66
2023/08/04 09:15:52;;;;;;;8.25;2.15;;;;;;;26.27;57.90;99079.44;4370315;32;33505;-67
2023/08/04 09:18:39;;;;;;;5.47;2.20;;;;;;;26.50;56.79;99070.47;4366936;32;33089;-68
2023/08/04 09:21:06;;;;;;;7.57;2.37;;;;;;;27.10;55.63;99064.84;4397960;32;33566;-67
2023/08/04 09:23:41;;;;;;;3.65;1.95;;;;;;;27.02;54.55;99067.09;4399342;32;35417;-66
2023/08/04 09:26:09;;;;;;;7.30;2.78;;;;;;;27.09;53.25;99068.66;4403374;32;31102;-67
2023/08/04 09:28:37;;;;;;;6.90;2.60;;;;;;;26.30;56.93;99069.94;4401225;32;34475;-67
2023/08/04 09:31:09;;;;;;;5.62;3.10;;;;;;;26.80;55.93;99075.91;4402963;32;34920;-66
2023/08/04 09:33:41;;;;;;;4.50;2.25;;;;;;;27.26;54.43;99066.06;4391271;32;34927;-66
2023/08/04 09:36:13;;;;;;;3.30;1.58;;;;;;;27.05;54.28;99064.72;4418891;32;34025;-67
2023/08/04 09:38:41;;;;;;;2.60;1.40;;;;;;;27.25;54.62;99056.13;4415039;32;33490;-68
2023/08/04 09:41:11;;;;;;;6.65;3.17;;;;;;;27.10;54.10;99050.28;4418521;32;34336;-67
2023/08/04 09:43:49;;;;;;;4.12;1.83;;;;;;;27.59;52.57;99050.84;4447906;32;33942;-67
2023/08/04 09:46:16;;;;;;;3.45;1.58;;;;;;;27.76;52.84;99032.50;4447375;32;34536;-67
2023/08/04 09:48:46;;;;;;;3.08;1.55;;;;;;;27.62;52.73;99031.97;4444420;32;33370;-67
2023/08/04 09:51:18;;;;;;;6.72;2.08;;;;;;;28.14;51.20;99028.31;4457555;32;34510;-69
2023/08/04 09:53:48;;;;;;;3.85;1.87;;;;;;;28.34;51.04;99027.84;4447904;32;32932;-66
2023/08/04 09:56:18;;;;;;;5.80;1.98;;;;;;;28.72;50.12;99031.84;4445979;32;33858;-69
2023/08/04 09:58:48;;;;;;;4.85;1.98;;;;;;;28.98;48.32;99031.16;4444659;32;32580;-68
2023/08/04 10:01:17;;;;;;;4.07;2.00;;;;;;;29.09;47.86;99039.63;4446920;32;33416;-65
2023/08/04 10:03:51;;;;;;;4.95;2.05;;;;;;;29.23;47.25;99029.91;4456643;32;33830;-68
2023/08/04 10:06:18;;;;;;;3.72;1.85;;;;;;;29.22;48.73;99028.25;4468540;32;34937;-68
2023/08/04 10:08:48;;;;;;;3.92;2.12;;;;;;;29.51;48.21;99030.84;4448807;32;32821;-69
2023/08/04 10:11:16;;;;;;;4.47;2.28;;;;;;;29.71;49.11;99034.72;4458859;32;34199;-72
2023/08/04 10:13:45;;;;;;;6.28;2.72;;;;;;;29.70;47.45;99040.50;4455260;32;34954;-73
2023/08/04 10:16:14;;;;;;;3.70;2.08;;;;;;;29.76;48.33;99035.88;4450042;32;34692;-74
2023/08/04 10:18:48;;;;;;;4.22;2.05;;;;;;;29.78;47.12;99030.94;4459826;32;34265;-69
2023/08/04 10:21:18;;;;;;;6.67;2.60;;;;;;;29.86;49.18;99036.00;4460278;32;33516;-74
2023/08/04 10:23:45;;;;;;;11.95;2.78;;;;;;;30.05;46.03;99028.19;4464447;32;33329;-71
2023/08/04 10:26:13;;;;;;;8.82;2.20;;;;;;;30.04;46.96;99032.87;4461367;32;34058;-68
2023/08/04 10:29:01;;;;;;;7.35;2.33;;;;;;;30.10;48.08;99031.03;4468489;32;33548;-70
2023/08/04 10:31:47;;;;;;;8.10;3.00;;;;;;;30.04;47.64;99027.38;4465917;32;33734;-69
2023/08/04 10:34:27;;;;;;;5.25;2.22;;;;;;;30.17;46.19;99032.47;4463596;32;33875;-69
2023/08/04 10:37:00;;;;;;;4.80;2.15;;;;;;;30.13;46.22;99033.25;4462132;32;33940;-72
2023/08/04 10:39:36;;;;;;;5.93;2.03;;;;;;;30.44;45.45;99028.09;4466108;32;34421;-74
2023/08/04 10:42:14;;;;;;;6.53;2.50;;;;;;;30.03;46.58;99025.72;4465048;32;33830;-69
2023/08/04 10:44:51;;;;;;;5.47;2.30;;;;;;;30.36;45.78;99032.97;4463554;32;35493;-70
2023/08/04 10:47:45;;;;;;;5.03;2.53;;;;;;;30.30;46.92;99031.25;4458283;32;33428;-71
2023/08/04 10:50:32;;;;;;;4.62;2.22;;;;;;;30.75;46.27;99032.75;4472270;32;33989;-73
2023/08/04 10:53:00;;;;;;;9.00;2.85;;;;;;;30.66;45.85;99041.78;4467336;32;32666;-71
2023/08/04 10:55:27;;;;;;;4.28;2.12;;;;;;;31.00;45.67;99040.44;4463585;32;34169;-66
2023/08/04 10:57:55;;;;;;;4.00;1.85;;;;;;;31.16;45.35;99041.37;4465580;32;34267;-68
2023/08/04 11:00:23;;;;;;;9.60;2.47;;;;;;;31.22;44.68;99032.03;4462637;32;33212;-68
2023/08/04 11:02:50;;;;;;;7.68;2.42;;;;;;;30.59;46.52;99036.50;4464427;32;33666;-70
2023/08/04 11:05:21;;;;;;;5.47;2.35;;;;;;;30.82;46.20;99033.41;4453127;32;31700;-71
2023/08/04 11:07:49;;;;;;;4.95;2.15;;;;;;;30.60;45.81;99033.47;4447530;32;33752;-70
2023/08/04 11:10:17;;;;;;;9.93;2.55;;;;;;;30.62;46.24;99034.03;4446115;32;32712;-70
2023/08/04 11:12:44;;;;;;;4.80;2.47;;;;;;;30.51;45.79;99037.00;4445084;32;33587;-70
2023/08/04 11:15:12;;;;;;;5.10;2.42;;;;;;;30.47;46.40;99038.63;4449014;32;34017;-71
2023/08/04 11:17:40;;;;;;;4.45;2.62;;;;;;;30.37;47.05;99033.84;4440443;32;33879;-70
2023/08/04 11:20:12;;;;;;;3.42;1.85;;;;;;;30.33;46.55;99038.19;4454113;32;32947;-71
2023/08/04 11:22:48;;;;;;;7.30;2.60;;;;;;;30.31;46.31;99030.19;4444195;32;33687;-70
2023/08/04 11:25:16;;;;;;;5.40;2.80;;;;;;;30.03;47.68;99024.87;4442181;32;33788;-70
2023/08/04 11:27:45;;;;;;;3.72;2.17;;;;;;;30.12;46.91;99032.44;4446362;32;34644;-70
2023/08/04 11:30:15;;;;;;;7.20;2.33;;;;;;;29.64;48.25;99025.81;4446578;32;33227;-71
2023/08/04 11:32:49;;;;;;;7.35;2.65;;;;;;;29.89;48.26;99027.22;4432068;32;33560;-68
2023/08/04 11:35:17;;;;;;;5.00;2.35;;;;;;;29.98;48.57;99022.06;4449175;32;33731;-69
2023/08/04 11:37:44;;;;;;;5.18;2.47;;;;;;;30.20;48.14;99033.91;4464803;32;32367;-69
2023/08/04 11:40:22;;;;;;;7.32;2.33;;;;;;;30.34;48.56;99020.56;4461331;32;32709;-70
2023/08/04 11:42:51;;;;;;;6.70;2.45;;;;;;;30.55;46.84;99016.84;4468666;32;35011;-73